Clarksville, Tennessee
Current Conditions -  °F | °C
As of 5:05 PM on Wednesday 26 Nov 2014 (Local Time) from KCKV Reporting Station
Light Rain Light Rain  
Wind Chill: 36°   Ceiling: 2400
Heat Index: 43°   Visibility: 8mi
Dew Point: 35°   Wind: 15mph
Humidity: 74%   Direction: 210°SSW
Pressure: 30.02"   Gusts: 23mph
Location:  36.53°N, 87.36°W
Report Text: KCKV 262305Z AUTO 21013G20KT 8SM -RA BKN024 OVC042 06/02 A3002 RMK AO2 P0001 T00610017
Loading
Personal Weather Stations






























Interactive Weather Map New forecast layout! Learn more

10-Day Weather Forecast

Advertisements
Track Severe Weather on mobile